Date,TemperatureHighF,TemperatureAvgF,TemperatureLowF,DewpointHighF,DewpointAvgF,DewpointLowF,HumidityHigh,HumidityAvg,HumidityLow,PressureMaxIn,PressureMinIn,WindSpeedMaxMPH,WindSpeedAvgMPH,GustSpeedMaxMPH,PrecipitationSumIn
2013-1-1,55.0,42.7,35.0,37.0,34.3,31.0,91,74,47,0.00,40.00,10,5,12,0.00
2013-1-2,61.0,43.2,32.0,41.0,33.8,29.0,90,72,40,0.00,40.00,9,4,11,0.00
2013-1-3,60.0,42.6,31.0,40.0,33.3,27.0,89,71,43,0.00,40.00,9,4,11,0.00
2013-1-4,62.0,45.3,33.0,43.0,36.8,30.0,89,74,44,0.00,40.00,9,4,9,0.00
2013-1-5,56.0,46.6,38.0,48.0,41.7,35.0,100,84,64,0.00,40.00,11,5,12,0.54
2013-1-6,48.0,45.1,40.0,46.0,43.0,40.0,100,92,85,0.00,40.00,9,4,12,0.97
2013-1-7,55.0,47.1,40.0,47.0,43.1,40.0,100,87,65,0.00,40.00,10,4,12,0.01
2013-1-8,62.0,47.0,38.0,49.0,42.8,38.0,100,87,60,0.00,40.00,8,3,9,0.00
2013-1-9,53.0,45.2,40.0,48.0,42.7,39.0,100,92,77,0.00,40.00,12,4,18,0.13
2013-1-10,49.0,42.5,37.0,40.0,34.7,30.0,94,75,50,0.00,40.00,15,5,20,0.13
2013-1-11,50.0,41.4,32.0,40.0,34.0,30.0,93,76,49,0.00,40.00,9,5,9,0.00
2013-1-12,50.0,40.9,34.0,39.0,31.9,23.0,100,74,34,0.00,40.00,7,4,10,0.01
2013-1-13,48.0,35.8,28.0,28.0,24.4,17.0,90,66,29,0.00,40.00,9,4,11,0.01
2013-1-14,50.0,37.1,28.0,25.0,22.2,16.0,77,58,29,0.00,40.00,7,5,9,0.00
2013-1-15,55.0,39.2,28.0,32.0,26.5,22.0,84,63,28,0.00,40.00,8,4,10,0.00
2013-1-16,60.0,42.7,31.0,34.0,30.6,27.0,87,66,32,0.00,40.00,8,4,9,0.00
2013-1-17,67.0,46.1,33.0,40.0,33.9,29.0,87,66,33,0.00,40.00,9,4,9,0.00
2013-1-18,67.0,47.2,34.0,44.0,36.1,30.0,87,68,38,0.00,40.00,8,3,9,0.00
2013-1-19,69.0,47.8,35.0,42.0,36.0,30.0,86,67,35,0.00,40.00,8,4,9,0.00
2013-1-20,69.0,48.5,33.0,41.0,35.4,29.0,86,64,31,0.00,40.00,10,4,10,0.00
2013-1-21,70.0,48.1,34.0,42.0,34.1,28.0,80,61,35,0.00,40.00,9,4,11,0.00
2013-1-22,69.0,50.4,35.0,43.0,34.2,26.0,75,56,35,0.00,40.00,9,4,10,0.00
2013-1-23,56.0,50.5,46.0,49.0,41.5,37.0,86,72,51,0.00,40.00,8,4,9,0.00
2013-1-24,54.0,51.6,48.0,53.0,50.6,46.0,100,96,86,0.00,40.00,5,2,6,0.23
2013-1-25,66.0,55.1,51.0,59.0,53.8,51.0,100,96,76,0.00,40.00,8,4,10,0.01
2013-1-26,56.0,52.3,45.0,54.0,48.7,41.0,100,88,60,0.00,40.00,8,4,12,0.00
2013-1-27,56.0,46.3,41.0,41.0,38.5,30.0,98,77,38,0.00,40.00,10,4,15,0.00
2013-1-28,56.0,46.2,39.0,44.0,39.1,36.0,97,78,50,0.00,40.00,7,5,12,0.00
2013-1-29,55.0,46.8,41.0,44.0,41.5,40.0,99,83,59,0.00,40.00,8,4,10,0.00
2013-1-30,67.0,49.6,38.0,45.0,41.4,38.0,100,78,40,0.00,40.00,8,4,10,0.00
2013-1-31,68.0,53.4,38.0,46.0,43.6,38.0,100,73,43,0.00,40.00,7,4,9,0.00
2013-2-1,71.0,50.4,38.0,48.0,43.6,38.0,99,81,41,0.00,40.00,9,4,14,0.00
2013-2-2,57.0,48.9,43.0,52.0,46.9,43.0,100,93,77,0.00,40.00,5,2,8,0.00
2013-2-3,58.0,49.1,41.0,48.0,45.6,41.0,100,88,63,0.00,40.00,7,4,10,0.00
2013-2-4,66.0,48.3,36.0,50.0,43.6,36.0,100,86,50,0.00,40.00,7,3,10,0.00
2013-2-5,53.0,48.1,45.0,48.0,46.2,45.0,100,93,76,0.00,40.00,6,3,9,0.00
2013-2-6,61.0,49.2,41.0,46.0,43.4,39.0,99,82,46,0.00,40.00,9,3,10,0.00
2013-2-7,56.0,45.3,38.0,46.0,40.6,38.0,100,86,55,0.00,40.00,10,5,15,0.02
2013-2-8,52.0,43.5,37.0,43.0,40.0,36.0,100,89,54,0.00,40.00,9,5,13,0.23
2013-2-9,56.0,42.4,33.0,42.0,35.1,29.0,100,80,37,0.00,40.00,8,4,10,0.07
2013-2-10,59.0,44.5,31.0,40.0,35.5,31.0,100,74,37,0.00,40.00,10,4,11,0.00
2013-2-11,61.0,45.9,33.0,41.0,35.0,30.0,100,71,34,0.00,40.00,8,4,10,0.00
2013-2-12,63.0,45.1,34.0,42.0,35.2,30.0,96,73,29,0.00,40.00,9,4,12,0.00
2013-2-13,65.0,46.7,35.0,46.0,39.8,35.0,100,81,37,0.00,40.00,7,3,10,0.00
2013-2-14,71.0,51.7,36.0,43.0,41.1,36.0,100,72,33,0.00,40.00,8,4,9,0.00
2013-2-15,76.0,54.8,38.0,47.0,40.5,34.0,93,64,22,0.00,40.00,8,4,10,0.00
2013-2-16,73.0,54.3,40.0,46.0,38.8,35.0,83,59,26,0.00,40.00,8,4,9,0.00
2013-2-17,62.0,47.2,39.0,49.0,43.4,39.0,100,88,55,0.00,40.00,8,4,10,0.00
2013-2-18,51.0,43.6,35.0,46.0,40.0,35.0,100,88,68,0.00,40.00,9,5,13,0.00
2013-2-19,51.0,43.5,37.0,42.0,38.8,33.0,95,84,49,0.00,40.00,14,6,25,0.39
2013-2-20,58.0,44.6,34.0,41.0,36.1,32.0,96,75,40,0.00,40.00,9,4,14,0.02
2013-2-21,60.0,46.2,37.0,42.0,37.1,32.0,96,74,35,0.00,40.00,8,5,15,0.00
2013-2-22,65.0,47.4,34.0,42.0,36.2,32.0,93,69,34,0.00,40.00,9,4,10,0.00
2013-2-23,61.0,49.2,42.0,43.0,38.7,33.0,89,70,39,0.00,40.00,14,6,23,0.00
2013-2-24,64.0,47.7,35.0,38.0,31.6,24.0,93,60,22,0.00,40.00,9,5,10,0.00
2013-2-25,66.0,48.1,33.0,44.0,34.3,28.0,92,62,31,0.00,40.00,10,4,12,0.00
2013-2-26,69.0,48.4,33.0,41.0,33.9,27.0,96,65,21,0.00,40.00,7,4,9,0.00
2013-2-27,73.0,49.9,34.0,40.0,32.1,15.0,81,56,11,0.00,40.00,8,4,12,0.00
2013-2-28,71.0,54.3,39.0,49.0,42.5,35.0,89,67,43,0.00,40.00,8,5,14,0.00
2013-3-1,77.0,57.8,42.0,52.0,46.4,41.0,96,70,35,0.00,40.00,8,4,10,0.00
2013-3-2,74.0,57.7,46.0,51.0,45.5,42.0,89,67,34,0.00,40.00,9,5,13,0.00
2013-3-3,65.0,53.7,48.0,50.0,47.5,45.0,97,81,52,0.00,40.00,11,5,16,0.00
2013-3-4,65.0,51.3,44.0,48.0,45.4,42.0,93,81,55,0.00,40.00,8,4,10,0.00
2013-3-5,60.0,48.9,41.0,46.0,41.9,37.0,97,79,50,0.00,40.00,22,7,27,0.00
2013-3-6,58.0,50.6,42.0,46.0,41.0,35.0,92,71,46,0.00,40.00,22,9,29,0.16
2013-3-7,60.0,48.0,40.0,46.0,41.5,38.0,97,81,46,0.00,40.00,8,5,13,0.14
2013-3-8,59.0,49.2,44.0,46.0,42.3,39.0,98,79,50,0.00,40.00,12,5,18,0.19
2013-3-9,65.0,52.3,43.0,44.0,41.7,39.0,91,69,44,0.00,40.00,7,4,10,0.00
2013-3-10,69.0,52.5,37.0,46.0,40.6,34.0,93,69,28,0.00,40.00,8,4,12,0.00
2013-3-11,75.0,54.7,37.0,46.0,40.9,35.0,93,65,30,0.00,40.00,9,5,14,0.00
2013-3-12,80.0,58.1,40.0,51.0,44.9,38.0,96,67,28,0.00,40.00,9,4,12,0.00
2013-3-13,85.0,60.1,45.0,54.0,47.7,43.0,92,68,28,0.00,40.00,10,4,17,0.00
2013-3-14,76.0,59.4,46.0,55.0,47.2,38.0,95,68,35,0.00,40.00,9,4,14,0.00
2013-3-15,75.0,57.1,43.0,48.0,43.2,38.0,86,63,32,0.00,40.00,9,5,15,0.00
2013-3-16,74.0,55.4,42.0,51.0,46.6,41.0,100,76,39,0.00,40.00,11,4,15,0.00
2013-3-17,73.0,54.4,42.0,47.0,42.7,40.0,92,68,30,0.00,40.00,9,5,13,0.00
2013-3-18,69.0,52.1,38.0,46.0,41.5,36.0,94,71,37,0.00,40.00,8,4,10,0.00
2013-3-19,75.0,56.0,43.0,48.0,42.2,33.0,91,65,26,0.00,40.00,12,5,19,0.05
2013-3-20,68.0,57.7,52.0,53.0,49.6,39.0,97,77,41,0.00,40.00,11,5,18,0.06
2013-3-21,66.0,55.0,46.0,54.0,44.3,40.0,100,70,40,0.00,40.00,10,6,16,0.01
2013-3-22,71.0,52.1,38.0,44.0,33.6,15.0,96,60,12,0.00,40.00,15,6,20,0.00
2013-3-23,72.0,51.8,34.0,38.0,32.5,25.0,85,55,18,0.00,40.00,8,5,12,0.00
2013-3-24,74.0,53.3,38.0,45.0,38.0,34.0,86,61,26,0.00,40.00,11,4,14,0.00
2013-3-25,68.0,51.2,41.0,48.0,41.9,38.0,92,73,39,0.00,40.00,10,5,14,0.00
2013-3-26,72.0,51.3,39.0,48.0,42.7,38.0,96,76,41,0.00,40.00,10,5,14,0.00
2013-3-27,70.0,53.8,42.0,51.0,46.1,42.0,99,79,49,0.00,40.00,11,5,16,0.00
2013-3-28,72.0,63.5,51.0,54.0,51.7,48.0,91,66,51,0.00,40.00,9,6,15,0.00
2013-3-29,77.0,57.1,44.0,53.0,48.3,43.0,99,76,44,0.00,40.00,15,5,22,0.00
2013-3-30,70.0,57.1,50.0,53.0,48.7,-99.9,100,80,48,0.00,40.00,13,5,19,0.01
2013-3-31,73.0,59.9,49.0,54.0,49.0,42.0,100,71,36,0.00,40.00,13,6,19,0.02
2013-4-1,66.0,56.7,51.0,53.0,50.2,47.0,100,81,56,0.00,40.00,13,6,20,0.03
2013-4-2,74.0,58.8,49.0,52.0,49.0,45.0,95,72,35,0.00,40.00,11,4,17,0.01
2013-4-3,83.0,57.9,46.0,53.0,49.2,45.0,100,79,29,0.00,40.00,12,4,20,0.00
2013-4-4,65.0,55.4,47.0,57.0,52.2,46.0,100,90,73,0.00,40.00,9,5,16,0.17
2013-4-5,67.0,58.5,54.0,54.0,50.8,48.0,99,77,55,0.00,40.00,10,5,16,0.02
2013-4-6,70.0,58.1,49.0,53.0,50.6,49.0,100,78,52,0.00,40.00,11,4,17,0.00
2013-4-7,68.0,57.1,50.0,53.0,49.9,46.0,100,79,52,0.00,40.00,13,6,19,0.01
2013-4-8,66.0,54.7,48.0,51.0,38.3,29.0,95,58,25,0.00,40.00,17,11,27,0.08
2013-4-9,76.0,58.3,40.0,46.0,34.4,24.0,98,52,16,0.00,40.00,14,7,23,0.00
2013-4-10,85.0,67.1,44.0,49.0,42.3,35.0,80,45,24,0.00,40.00,11,6,17,0.00
2013-4-11,70.0,57.6,47.0,49.0,46.7,44.0,97,70,42,0.00,40.00,9,4,13,0.00
2013-4-12,76.0,54.4,40.0,47.0,44.1,39.0,98,73,36,0.00,40.00,10,4,14,0.00
2013-4-13,72.0,54.6,42.0,48.0,44.2,40.0,98,72,40,0.00,40.00,10,5,15,0.00
2013-4-14,70.0,54.3,40.0,44.0,40.2,38.0,95,64,32,0.00,40.00,10,5,16,0.00
2013-4-15,59.0,51.7,45.0,48.0,39.5,30.0,92,66,41,0.00,40.00,16,8,24,0.00
2013-4-16,65.0,53.5,39.0,37.0,32.9,23.0,89,50,20,0.00,40.00,15,7,24,0.00
2013-4-17,71.0,55.1,38.0,42.0,31.1,21.0,95,50,15,0.00,40.00,13,7,22,0.00
2013-4-18,75.0,55.0,39.0,37.0,32.9,27.0,72,48,18,0.00,40.00,12,5,17,0.00
2013-4-19,82.0,60.6,42.0,45.0,38.0,33.0,74,47,24,0.00,40.00,11,4,15,0.00
2013-4-20,83.0,63.8,49.0,47.0,43.7,39.0,81,53,21,0.00,40.00,11,6,16,0.00
2013-4-21,89.0,65.0,46.0,44.0,40.5,37.0,78,47,16,0.00,40.00,11,4,15,0.00
2013-4-22,84.0,63.3,50.0,50.0,43.2,37.0,90,52,25,0.00,40.00,11,5,16,0.00
2013-4-23,76.0,57.2,42.0,50.0,46.2,41.0,97,71,34,0.00,40.00,13,5,18,0.00
2013-4-24,63.0,54.8,47.0,49.0,47.9,47.0,100,79,59,0.00,40.00,13,7,21,0.00
2013-4-25,70.0,58.8,51.0,52.0,48.3,46.0,95,70,45,0.00,40.00,13,6,22,0.00
2013-4-26,77.0,57.8,43.0,50.0,46.6,42.0,96,70,34,0.00,40.00,11,5,14,0.00
2013-4-27,81.0,59.5,45.0,52.0,47.7,43.0,96,70,28,0.00,40.00,10,4,15,0.00
2013-4-28,84.0,60.2,45.0,52.0,47.8,44.0,100,69,32,0.00,40.00,9,4,13,0.00
2013-4-29,90.0,67.0,52.0,51.0,47.3,43.0,86,56,20,0.00,40.00,11,4,18,0.00
2013-4-30,81.0,68.1,48.0,50.0,45.2,41.0,91,47,28,0.00,40.00,11,5,15,0.00
2013-5-1,82.0,61.4,45.0,49.0,43.7,37.0,96,57,22,0.00,40.00,11,5,15,0.00
2013-5-2,93.0,70.5,49.0,45.0,39.7,33.0,82,40,12,0.00,40.00,14,4,21,0.00
2013-5-3,92.0,69.1,52.0,40.0,33.1,24.0,56,30,9,0.00,40.00,11,5,19,0.00
2013-5-4,80.0,62.0,52.0,49.0,39.7,26.0,84,48,22,0.00,40.00,14,6,20,0.00
2013-5-5,69.0,58.3,49.0,48.0,46.1,44.0,93,66,42,0.00,40.00,28,12,34,0.00
2013-5-6,70.0,62.7,54.0,49.0,47.0,45.0,79,58,40,0.00,40.00,15,10,22,0.00
2013-5-7,73.0,60.4,50.0,49.0,47.2,45.0,85,64,40,0.00,40.00,15,6,21,0.00
2013-5-8,70.0,58.3,50.0,50.0,48.3,44.0,96,72,39,0.00,40.00,12,6,18,0.00
2013-5-9,71.0,58.4,52.0,52.0,49.1,47.0,85,72,51,0.00,40.00,13,5,20,0.00
2013-5-10,78.0,61.7,51.0,53.0,46.8,-99.9,89,66,41,0.00,40.00,11,5,15,0.00
2013-5-11,88.0,65.8,50.0,55.0,48.4,-99.9,90,60,26,0.00,40.00,15,5,21,0.00
2013-5-12,90.0,71.1,52.0,52.0,48.5,42.0,80,49,22,0.00,40.00,10,5,18,0.00
2013-5-13,86.0,66.4,51.0,52.0,47.3,39.0,80,53,28,0.00,40.00,9,5,15,0.00
2013-5-14,70.0,58.1,49.0,52.0,49.3,46.0,93,74,52,0.00,40.00,12,6,15,0.00
2013-5-15,71.0,57.6,46.0,48.0,45.9,42.0,91,68,40,0.00,40.00,13,6,18,0.00
2013-5-16,71.0,52.4,48.0,53.0,33.5,-99.9,87,74,51,0.00,40.00,12,5,18,0.01
2013-5-17,72.0,59.4,48.0,49.0,42.0,-99.9,91,63,32,0.00,40.00,12,6,19,0.01
2013-5-18,75.0,58.9,43.0,47.0,43.4,40.0,88,60,31,0.00,40.00,9,5,14,0.00
2013-5-19,82.0,65.3,47.0,48.0,45.3,41.0,90,54,25,0.00,40.00,10,5,18,0.00
2013-5-20,91.0,69.5,51.0,45.0,38.9,31.0,57,36,12,0.00,40.00,12,5,19,0.00
2013-5-21,75.0,61.9,49.0,48.0,43.9,36.0,78,54,28,0.00,40.00,13,6,19,0.00
2013-5-22,68.0,55.9,46.0,43.0,34.4,24.0,76,49,19,0.00,40.00,10,6,15,0.00
2013-5-23,65.0,53.8,40.0,41.0,38.2,34.0,80,58,35,0.00,40.00,11,6,16,0.00
2013-5-24,71.0,56.0,41.0,44.0,38.9,35.0,79,56,31,0.00,40.00,14,6,19,0.00
2013-5-25,67.0,54.5,41.0,46.0,41.9,36.0,84,65,44,0.00,40.00,12,5,18,0.00
2013-5-26,72.0,60.1,48.0,51.0,48.3,43.0,85,67,46,0.00,40.00,12,6,18,0.00
2013-5-27,70.0,60.1,52.0,53.0,50.7,48.0,89,72,51,0.00,40.00,11,5,15,0.00
2013-5-28,75.0,63.5,57.0,58.0,53.9,48.0,100,74,48,0.00,40.00,11,6,19,0.01
2013-5-29,75.0,63.0,51.0,54.0,48.9,46.0,84,62,42,0.00,40.00,11,6,16,0.01
2013-5-30,78.0,63.0,46.0,47.0,43.6,41.0,83,53,27,0.00,40.00,11,6,17,0.00
2013-5-31,89.0,68.2,47.0,47.0,42.8,38.0,73,45,18,0.00,40.00,11,5,16,0.00
2013-6-1,92.0,72.2,53.0,49.0,38.5,-99.9,64,39,20,0.00,40.00,11,5,16,0.00
2013-6-2,74.0,61.5,52.0,51.0,48.0,44.0,88,63,43,0.00,40.00,13,5,18,0.00
2013-6-3,69.0,59.3,52.0,53.0,49.8,48.0,88,72,55,0.00,40.00,13,6,19,0.00
2013-6-4,69.0,59.0,50.0,54.0,50.4,46.0,86,74,57,0.00,40.00,12,6,19,0.00
2013-6-5,71.0,58.8,50.0,54.0,50.0,46.0,93,74,48,0.00,40.00,13,6,18,0.00
2013-6-6,76.0,60.0,50.0,52.0,49.8,48.0,92,72,40,0.00,40.00,11,5,18,0.00
2013-6-7,90.0,64.6,52.0,56.0,52.1,50.0,97,69,31,0.00,40.00,10,4,16,0.00
2013-6-8,75.0,62.0,51.0,55.0,52.8,49.0,98,74,50,0.00,40.00,14,6,23,0.00
2013-6-9,67.0,60.3,57.0,56.0,54.7,53.0,95,82,66,0.00,40.00,15,8,23,0.00
2013-6-10,70.0,62.8,57.0,53.0,51.9,50.0,83,68,54,0.00,40.00,13,7,18,0.00
2013-6-11,79.0,64.4,55.0,55.0,52.8,50.0,88,68,43,0.00,40.00,11,5,17,0.00
2013-6-12,78.0,65.3,51.0,53.0,47.8,43.0,88,57,29,0.00,40.00,11,6,17,0.00
2013-6-13,80.0,62.7,45.0,47.0,44.1,41.0,86,56,28,0.00,40.00,12,5,18,0.00
2013-6-14,87.0,67.1,48.0,47.0,42.5,35.0,77,46,16,0.00,40.00,12,5,19,0.00
2013-6-15,70.0,57.8,48.0,50.0,48.0,44.0,92,72,47,0.00,40.00,12,6,20,0.00
2013-6-16,84.0,64.0,47.0,51.0,48.2,46.0,100,64,27,0.00,40.00,12,5,17,0.00
2013-6-17,79.0,65.6,51.0,53.0,48.9,44.0,77,57,35,0.00,40.00,11,5,16,0.00
2013-6-18,73.0,63.4,54.0,53.0,49.2,44.0,89,62,38,0.00,40.00,12,6,21,0.00
2013-6-19,76.0,62.0,46.0,47.0,45.0,41.0,84,57,33,0.00,40.00,10,5,18,0.00
2013-6-20,79.0,60.1,50.0,47.0,44.1,42.0,76,58,30,0.00,40.00,12,5,19,0.00
2013-6-21,82.0,80.0,77.0,49.0,46.8,44.0,33,31,29,0.00,40.00,11,10,17,0.00
2013-6-22,87.0,73.3,49.0,50.0,47.1,41.0,79,42,20,0.00,40.00,13,6,18,0.00
2013-6-23,71.0,61.9,53.0,59.0,54.0,48.0,95,76,58,0.00,40.00,12,5,18,0.00
2013-6-24,68.0,62.7,60.0,61.0,59.3,58.0,100,89,75,0.00,40.00,8,4,13,0.01
2013-6-25,76.0,67.1,60.0,62.0,59.4,57.0,95,78,56,0.00,40.00,13,5,19,0.01
2013-6-26,88.0,72.8,60.0,63.0,59.9,57.0,97,68,39,0.00,40.00,13,6,20,0.00
2013-6-27,94.0,77.7,62.0,61.0,56.7,52.0,78,52,29,0.00,40.00,11,5,16,0.00
2013-6-28,99.0,81.8,65.0,57.0,53.1,49.0,61,40,22,0.00,40.00,13,5,18,0.00
2013-6-29,100.0,82.9,66.0,55.0,49.7,45.0,53,34,16,0.00,40.00,11,5,17,0.00
2013-6-30,94.0,77.9,60.0,56.0,52.5,47.0,67,44,24,0.00,40.00,10,4,14,0.00
2013-7-1,89.0,75.4,63.0,57.0,54.0,51.0,71,49,31,0.00,40.00,13,6,19,0.00
2013-7-2,92.0,72.9,62.0,58.0,55.1,52.0,75,56,31,0.00,40.00,12,5,21,0.00
2013-7-10,79.0,70.3,56.0,55.0,52.6,50.0,87,56,36,0.00,40.00,8,6,12,0.00
2013-7-11,74.0,59.9,53.0,54.0,51.1,49.0,93,76,41,0.00,40.00,11,5,18,0.00
2013-7-12,80.0,61.3,51.0,53.0,50.1,48.0,94,71,36,0.00,40.00,11,4,15,0.00
2013-7-13,84.0,64.3,49.0,53.0,49.2,44.0,100,65,25,0.00,40.00,9,5,14,0.00
2013-7-14,80.0,62.1,49.0,52.0,50.1,47.0,93,69,34,0.00,40.00,11,5,18,0.00
2013-7-15,72.0,58.7,53.0,52.0,50.8,50.0,92,77,46,0.00,40.00,12,5,19,0.00
2013-7-16,73.0,65.4,56.0,54.0,52.8,52.0,87,65,48,0.00,40.00,11,8,16,0.00
2013-7-17,80.0,66.2,56.0,55.0,53.5,52.0,90,67,41,0.00,40.00,12,5,16,0.00
2013-7-18,83.0,65.8,51.0,56.0,52.0,46.0,96,66,34,0.00,40.00,12,5,17,0.00
2013-7-19,81.0,61.4,49.0,55.0,51.2,48.0,100,74,36,0.00,40.00,10,4,14,0.00
2013-7-20,74.0,58.8,52.0,54.0,50.2,-99.9,98,77,47,0.00,40.00,9,5,14,0.00
2013-7-21,81.0,62.4,52.0,55.0,52.6,50.0,97,74,37,0.00,40.00,12,5,16,0.00
2013-7-22,79.0,65.2,56.0,58.0,55.7,53.0,95,74,46,0.00,40.00,11,5,19,0.00
2013-7-23,83.0,68.8,60.0,57.0,55.8,54.0,82,65,40,0.00,40.00,13,6,19,0.00
2013-7-24,86.0,68.0,56.0,56.0,54.4,52.0,91,66,32,0.00,40.00,11,5,18,0.00
2013-7-25,81.0,64.5,53.0,55.0,53.3,51.0,93,71,39,0.00,40.00,11,5,16,0.00
2013-7-26,81.0,62.5,54.0,56.0,53.5,52.0,98,76,38,0.00,40.00,10,5,14,0.00
2013-7-27,79.0,63.0,55.0,55.0,53.8,51.0,97,76,38,0.00,40.00,9,5,15,0.00
2013-7-28,71.0,60.2,55.0,55.0,53.1,52.0,94,79,55,0.00,40.00,10,5,16,0.00
2013-7-29,69.0,60.0,56.0,55.0,53.1,52.0,88,79,59,0.00,40.00,12,6,18,0.00
2013-7-30,75.0,62.8,56.0,54.0,53.1,52.0,87,72,46,0.00,40.00,12,6,20,0.00
2013-7-31,74.0,62.0,54.0,53.0,51.8,49.0,90,71,42,0.00,40.00,12,5,17,0.00
2013-8-1,78.0,64.6,49.0,52.0,49.9,46.0,93,63,35,0.00,40.00,9,4,14,0.00
2013-8-2,79.0,61.2,49.0,53.0,49.1,44.0,95,68,33,0.00,40.00,10,5,14,0.00
2013-8-3,74.0,59.7,51.0,55.0,51.4,48.0,94,76,45,0.00,40.00,10,5,17,0.00
2013-8-4,75.0,59.5,54.0,54.0,52.2,51.0,94,79,45,0.00,40.00,11,5,16,0.00
2013-8-5,78.0,60.3,53.0,55.0,52.2,51.0,97,78,41,0.00,40.00,11,5,16,0.00
2013-8-6,72.0,59.4,53.0,54.0,52.8,52.0,96,81,54,0.00,40.00,13,6,20,0.00
2013-8-7,73.0,62.4,56.0,55.0,53.4,51.0,95,74,48,0.00,40.00,12,6,18,0.00
2013-8-8,75.0,61.1,54.0,56.0,53.6,52.0,96,79,50,0.00,40.00,12,6,20,0.00
2013-8-9,76.0,61.9,55.0,56.0,53.0,51.0,91,74,44,0.00,40.00,12,5,17,0.00
2013-8-10,80.0,64.7,56.0,57.0,55.2,53.0,92,74,46,0.00,40.00,12,5,18,0.00
2013-8-11,81.0,64.1,53.0,58.0,54.2,49.0,98,74,43,0.00,40.00,12,5,17,0.00
2013-8-12,82.0,63.6,51.0,57.0,52.0,49.0,98,71,33,0.00,40.00,12,4,19,0.00
2013-8-13,89.0,66.5,51.0,54.0,47.5,-99.9,88,58,20,0.00,40.00,12,4,17,0.00
2013-8-14,88.0,71.0,54.0,57.0,48.4,-99.9,79,52,26,0.00,40.00,10,5,14,0.00
2013-8-15,92.0,68.1,56.0,60.0,47.2,-99.9,94,58,32,0.00,40.00,10,5,16,0.00
2013-8-16,92.0,71.9,61.0,62.0,54.9,-99.9,86,61,36,0.00,40.00,12,6,17,0.00
2013-8-17,85.0,69.6,60.0,56.0,51.6,-99.9,83,56,31,0.00,40.00,11,4,16,0.00
2013-8-18,95.0,68.6,55.0,57.0,54.2,45.0,93,65,18,0.00,40.00,10,4,15,0.00
2013-8-19,87.0,64.8,57.0,57.0,49.5,-99.9,89,66,35,0.00,40.00,12,5,18,0.00
2013-8-20,76.0,62.1,56.0,57.0,54.6,52.0,98,79,47,0.00,40.00,11,5,18,0.00
2013-8-21,78.0,63.2,55.0,54.0,53.1,52.0,91,72,42,0.00,40.00,11,5,18,0.00
2013-8-22,77.0,62.3,52.0,55.0,52.4,49.0,90,72,43,0.00,40.00,12,6,17,0.00
2013-8-23,81.0,64.3,51.0,56.0,52.5,48.0,90,69,40,0.00,40.00,10,4,14,0.00
2013-8-24,85.0,66.7,52.0,56.0,51.2,-99.9,89,63,35,0.00,40.00,12,5,19,0.00
2013-8-25,83.0,67.9,58.0,60.0,56.8,53.0,90,70,43,0.00,40.00,14,5,20,0.00
2013-8-26,83.0,68.8,60.0,58.0,56.1,49.0,94,68,42,0.00,40.00,10,5,14,0.00
2013-8-27,79.0,63.4,55.0,52.0,48.5,45.0,77,60,37,0.00,40.00,6,4,10,0.00
2013-8-28,86.0,74.7,62.0,59.0,57.2,55.0,87,58,37,0.00,40.00,11,6,17,0.00
2013-8-29,87.0,71.0,59.0,61.0,58.3,55.0,98,69,34,0.00,40.00,10,5,16,0.00
2013-8-30,95.0,75.9,59.0,61.0,56.0,50.0,89,55,24,0.00,40.00,10,5,15,0.00
2013-8-31,90.0,73.4,61.0,55.0,49.6,-99.9,66,46,27,0.00,40.00,12,5,17,0.00
2013-9-1,88.0,73.1,63.0,61.0,55.8,52.0,77,56,34,0.00,40.00,14,6,19,0.00
2013-9-2,84.0,72.8,67.0,61.0,57.7,55.0,73,60,43,0.00,40.00,11,4,18,0.00
2013-9-3,85.0,71.8,62.0,59.0,53.4,48.0,82,56,28,0.00,40.00,11,5,17,0.00
2013-9-4,84.0,70.4,59.0,56.0,53.0,50.0,78,57,31,0.00,40.00,11,5,16,0.00
2013-9-5,84.0,68.9,55.0,56.0,51.4,45.0,85,58,26,0.00,40.00,11,6,18,0.00
2013-9-6,95.0,72.5,54.0,53.0,48.3,44.0,80,48,19,0.00,40.00,11,5,16,0.00
2013-9-7,94.0,71.4,59.0,55.0,46.5,-99.9,79,44,22,0.00,40.00,12,5,20,0.00
2013-9-8,86.0,66.8,54.0,58.0,53.6,52.0,98,68,31,0.00,40.00,10,4,14,0.00
2013-9-9,90.0,67.3,55.0,55.0,53.4,50.0,92,65,29,0.00,40.00,9,4,13,0.00
2013-9-10,70.0,61.9,55.0,57.0,55.3,53.0,99,80,62,0.00,40.00,11,5,17,0.00
2013-9-11,72.0,64.5,58.0,56.0,54.9,54.0,86,72,54,0.00,40.00,10,5,16,0.00
2013-9-12,82.0,65.1,55.0,58.0,55.2,51.0,88,73,43,0.00,40.00,11,5,18,0.00
2013-9-13,84.0,66.5,57.0,59.0,56.0,52.0,96,72,41,0.00,40.00,11,4,15,0.00
2013-9-14,82.0,65.6,54.0,56.0,52.4,-99.9,93,67,37,0.00,40.00,8,4,12,0.00
2013-9-15,84.0,68.6,56.0,56.0,53.9,52.0,90,63,37,0.00,40.00,10,5,15,0.00
2013-9-16,85.0,69.0,58.0,58.0,55.2,52.0,93,65,37,0.00,40.00,11,5,16,0.00
2013-9-17,76.0,64.2,52.0,54.0,50.8,47.0,87,64,37,0.00,40.00,11,5,16,0.00
2013-9-18,66.0,56.0,52.0,48.0,45.7,42.0,80,70,49,0.00,40.00,7,3,7,0.00
2013-9-19,93.0,68.8,50.0,48.0,42.3,38.0,69,44,15,0.00,40.00,12,5,18,0.00
2013-9-20,76.0,63.8,52.0,58.0,49.0,38.0,89,60,44,0.00,40.00,13,6,22,0.00
2013-9-21,70.0,62.5,56.0,61.0,54.8,-99.9,95,79,62,0.00,40.00,13,5,18,0.07
2013-9-22,74.0,61.6,50.0,54.0,50.9,47.0,98,71,44,0.00,40.00,9,4,15,0.04
2013-9-23,85.0,68.3,51.0,56.0,50.7,47.0,91,58,29,0.00,40.00,10,5,14,0.00
2013-9-24,79.0,66.4,55.0,56.0,51.0,47.0,83,60,33,0.00,40.00,11,6,18,0.00
2013-9-25,71.0,59.9,48.0,48.0,44.1,41.0,86,59,34,0.00,40.00,11,6,17,0.00
2013-9-26,74.0,58.6,46.0,44.0,39.9,33.0,82,54,22,0.00,40.00,12,5,19,0.00
2013-9-27,80.0,61.8,44.0,39.0,34.9,30.0,67,41,17,0.00,40.00,11,5,15,0.00
2013-9-28,87.0,64.1,46.0,47.0,31.3,-99.9,57,33,10,0.00,40.00,10,4,17,0.00
2013-9-29,84.0,65.7,53.0,55.0,48.5,41.0,81,57,29,0.00,40.00,11,6,15,0.00
2013-9-30,81.0,65.4,52.0,57.0,52.0,47.0,88,65,35,0.00,40.00,10,5,15,0.00
2013-10-1,71.0,61.6,53.0,44.0,41.2,38.0,56,48,35,0.00,40.00,8,4,9,0.00
2013-10-2,77.0,60.3,47.0,47.0,42.7,38.0,77,54,31,0.00,40.00,11,4,16,0.00
2013-10-3,75.0,58.2,46.0,43.0,36.6,32.0,74,49,21,0.00,40.00,8,5,14,0.00
2013-10-4,82.0,63.1,44.0,32.0,29.6,28.0,53,32,14,0.00,40.00,11,6,16,0.00
2013-10-5,89.0,66.8,47.0,32.0,28.1,21.0,47,27,9,0.00,40.00,8,4,11,0.00
2013-10-6,90.0,67.5,50.0,33.0,25.2,18.0,35,22,7,0.00,40.00,13,5,19,0.00
2013-10-7,84.0,69.9,52.0,39.0,30.4,25.0,57,25,14,0.00,40.00,11,5,16,0.00
2013-10-8,73.0,56.0,44.0,50.0,40.1,26.0,83,57,30,0.00,40.00,12,5,18,0.00
2013-10-9,66.0,55.9,47.0,46.0,43.7,40.0,84,65,42,0.00,40.00,10,6,14,0.00
2013-10-10,67.0,54.8,43.0,49.0,44.7,38.0,90,70,47,0.00,40.00,10,5,15,0.00
2013-10-11,73.0,55.2,45.0,48.0,45.5,43.0,93,73,37,0.00,40.00,9,4,14,0.00
2013-10-12,73.0,54.0,41.0,48.0,41.5,-99.9,92,67,34,0.00,40.00,11,4,14,0.00
2013-10-13,74.0,55.6,42.0,48.0,42.6,37.0,87,65,33,0.00,40.00,9,5,14,0.00
2013-10-14,81.0,61.9,42.0,41.0,37.8,35.0,75,45,19,0.00,40.00,9,4,12,0.00
2013-10-15,83.0,63.1,44.0,36.0,32.2,30.0,58,35,15,0.00,40.00,9,4,15,0.00
2013-10-16,85.0,64.9,50.0,37.0,29.8,25.0,44,29,13,0.00,40.00,12,5,19,0.00
2013-10-17,85.0,65.7,48.0,34.0,28.0,23.0,38,26,13,0.00,40.00,10,4,14,0.00
2013-10-18,87.0,64.3,46.0,39.0,30.3,25.0,44,30,12,0.00,40.00,10,4,15,0.00
2013-10-19,87.0,59.8,46.0,45.0,33.8,-99.9,77,41,16,0.00,40.00,8,3,14,0.00
2013-10-20,82.0,58.3,43.0,47.0,39.7,32.0,82,54,24,0.00,40.00,7,3,11,0.00
2013-10-21,79.0,54.7,41.0,48.0,42.1,34.0,87,66,27,0.00,40.00,10,3,14,0.00
2013-10-22,75.0,52.9,41.0,49.0,43.8,37.0,91,74,37,0.00,40.00,10,3,14,0.00
2013-10-23,71.0,51.6,40.0,50.0,45.0,38.0,99,80,46,0.00,40.00,9,3,13,0.00
2013-10-24,60.0,50.3,45.0,51.0,48.1,43.0,100,92,70,0.00,40.00,5,3,8,0.00
2013-10-25,75.0,55.4,44.0,49.0,46.1,43.0,99,75,35,0.00,40.00,7,4,8,0.00
2013-10-26,84.0,57.5,42.0,49.0,41.1,-99.9,83,60,20,0.00,40.00,9,4,14,0.00
2013-10-27,59.0,50.7,41.0,50.0,45.4,37.0,100,83,65,0.00,40.00,12,6,27,0.00
2013-10-28,60.0,54.6,52.0,49.0,44.6,-99.9,89,72,53,0.00,40.00,13,7,27,0.00
2013-10-29,62.0,55.1,46.0,49.0,46.0,42.0,85,72,51,0.00,40.00,9,5,14,0.00
2013-10-30,69.0,53.4,40.0,46.0,42.2,38.0,96,70,36,0.00,40.00,7,4,10,0.00
2013-10-31,76.0,57.0,41.0,44.0,40.0,36.0,88,58,27,0.00,40.00,9,4,10,0.00
2013-11-1,81.0,59.2,43.0,41.0,36.7,34.0,71,47,22,0.00,40.00,9,4,16,0.00
2013-11-2,76.0,56.4,41.0,49.0,36.9,-99.9,82,51,29,0.00,40.00,8,4,11,0.00
2013-11-3,67.0,53.4,43.0,45.0,36.0,25.0,97,59,21,0.00,40.00,10,5,15,0.00
2013-11-4,68.0,52.0,39.0,38.0,30.7,26.0,70,47,22,0.00,40.00,9,5,14,0.00
2013-11-5,73.0,54.7,40.0,30.0,26.1,22.0,58,36,17,0.00,40.00,9,4,11,0.00
2013-11-6,78.0,58.4,42.0,33.0,26.3,22.0,45,31,15,0.00,40.00,8,4,13,0.00
2013-11-7,77.0,57.8,47.0,35.0,28.4,25.0,50,34,16,0.00,40.00,9,4,9,0.00
2013-11-8,78.0,58.7,41.0,45.0,34.4,26.0,58,42,23,0.00,40.00,9,4,11,0.00
2013-11-9,75.0,53.7,44.0,51.0,39.9,-99.9,95,64,26,0.00,40.00,11,4,16,0.00
2013-11-10,66.0,52.7,45.0,50.0,46.8,43.0,100,83,49,0.00,40.00,10,4,16,0.00
2013-11-11,72.0,55.5,43.0,47.0,43.3,35.0,100,69,27,0.00,40.00,6,4,9,0.00
2013-11-12,76.0,60.9,52.0,46.0,42.4,39.0,68,52,28,0.00,40.00,10,5,12,0.00
2013-11-13,78.0,59.1,45.0,48.0,41.9,38.0,77,56,25,0.00,40.00,7,4,11,0.00
2013-11-14,73.0,54.5,42.0,49.0,43.9,37.0,91,69,41,0.00,40.00,7,4,9,0.00
2013-11-15,65.0,50.9,41.0,45.0,41.8,38.0,98,74,43,0.00,40.00,8,5,11,0.00
2013-11-16,64.0,49.1,40.0,44.0,38.0,-99.9,82,69,43,0.00,40.00,9,5,11,0.00
2013-11-17,66.0,51.1,42.0,47.0,42.8,39.0,90,75,50,0.00,40.00,8,5,11,0.00
2013-11-18,60.0,49.9,40.0,46.0,41.7,38.0,93,75,51,0.00,40.00,10,5,15,0.00
2013-11-19,65.0,54.2,44.0,55.0,45.9,40.0,100,75,53,0.00,40.00,8,4,11,0.08
2013-11-20,64.0,56.9,53.0,57.0,55.3,53.0,100,95,73,0.00,40.00,10,4,14,0.37
2013-11-21,58.0,52.3,44.0,53.0,45.9,34.0,100,82,41,0.00,40.00,8,5,11,0.09
2013-11-22,62.0,47.5,38.0,40.0,34.0,24.0,89,64,23,0.00,40.00,9,4,10,0.01
2013-11-23,66.0,49.1,39.0,49.0,36.9,-99.9,96,68,31,0.00,40.00,8,4,14,0.00
2013-11-24,66.0,50.5,38.0,43.0,39.0,36.0,94,68,36,0.00,40.00,8,4,10,0.00
2013-11-25,70.0,51.1,38.0,41.0,38.4,36.0,93,65,30,0.00,40.00,7,4,8,0.00
2013-11-26,69.0,52.7,42.0,44.0,40.5,37.0,87,66,36,0.00,40.00,6,4,8,0.00
2013-11-27,74.0,55.0,46.0,43.0,42.0,33.0,84,64,22,0.00,40.00,13,4,18,0.00
2013-11-28,69.0,53.4,45.0,44.0,41.0,37.0,83,65,37,0.00,40.00,7,3,12,0.00
2013-11-29,74.0,53.8,40.0,43.0,37.3,34.0,87,59,23,0.00,40.00,7,3,8,0.00
2013-11-30,71.0,51.8,38.0,44.0,35.9,-99.9,87,60,28,0.00,40.00,8,4,10,0.00
2013-12-1,73.0,53.2,39.0,41.0,38.0,34.0,83,60,30,0.00,40.00,7,4,9,0.00
2013-12-2,69.0,52.2,40.0,49.0,40.3,34.0,90,67,35,0.00,40.00,7,4,13,0.00
2013-12-3,55.0,50.3,36.0,52.0,39.4,29.0,98,69,43,0.00,40.00,10,6,15,0.00
2013-12-4,52.0,38.5,28.0,31.0,23.3,15.0,89,60,23,0.00,40.00,7,4,9,0.00
2013-12-5,51.0,35.3,22.0,23.0,18.2,16.0,77,53,26,0.00,40.00,9,4,11,0.00
2013-12-6,53.0,39.1,24.0,34.0,23.4,16.0,72,54,40,0.00,40.00,9,4,12,0.00
2013-12-7,50.0,43.2,31.0,44.0,29.7,-99.9,94,62,40,0.00,40.00,14,7,24,0.21
2013-12-8,48.0,35.0,27.0,29.0,24.5,20.0,89,68,33,0.00,40.00,9,4,11,0.19
2013-12-9,53.0,35.9,25.0,24.0,21.8,19.0,78,59,30,0.00,40.00,7,4,9,0.00
2013-12-10,60.0,40.3,24.0,26.0,22.9,19.0,81,54,24,0.00,40.00,9,4,9,0.00
2013-12-11,62.0,42.8,29.0,27.0,24.4,21.0,74,52,23,0.00,40.00,8,4,9,0.00
2013-12-12,63.0,42.4,29.0,31.0,25.6,22.0,75,55,24,0.00,40.00,6,4,8,0.00
2013-12-13,61.0,42.8,29.0,31.0,27.3,23.0,81,57,30,0.00,40.00,9,4,10,0.00
2013-12-14,69.0,45.3,31.0,32.0,25.8,-99.9,76,51,22,0.00,40.00,10,4,11,0.00
2013-12-15,70.0,47.6,32.0,33.0,28.4,25.0,74,51,23,0.00,40.00,7,4,8,0.00
2013-12-16,73.0,50.6,38.0,30.0,27.1,24.0,66,44,18,0.00,40.00,6,4,8,0.00
2013-12-17,71.0,53.5,41.0,34.0,28.7,25.0,56,40,21,0.00,40.00,6,3,7,0.00
2013-12-18,59.0,51.7,47.0,47.0,40.0,32.0,90,66,46,0.00,40.00,8,5,12,0.00
2013-12-19,58.0,48.8,38.0,46.0,37.6,29.0,93,67,41,0.00,40.00,10,4,14,0.00
2013-12-20,60.0,42.1,32.0,29.0,20.2,11.0,77,49,14,0.00,40.00,9,6,11,0.00
2013-12-21,64.0,45.9,35.0,42.0,24.9,-99.9,76,46,29,0.00,40.00,9,4,13,0.00
2013-12-22,66.0,47.6,35.0,40.0,33.0,30.0,84,60,30,0.00,40.00,7,3,10,0.00
2013-12-23,70.0,50.0,37.0,38.0,32.2,29.0,72,53,25,0.00,40.00,8,4,8,0.00
2013-12-24,71.0,50.8,37.0,37.0,32.6,30.0,75,52,27,0.00,40.00,8,4,9,0.00
2013-12-25,72.0,51.2,36.0,36.0,31.6,27.0,70,50,26,0.00,40.00,10,4,12,0.00
2013-12-26,74.0,51.0,36.0,38.0,31.1,26.0,72,49,25,0.00,40.00,7,3,7,0.00
2013-12-27,67.0,50.3,35.0,37.0,27.8,20.0,58,43,25,0.00,40.00,7,4,8,0.00
2013-12-28,67.0,47.6,35.0,32.0,26.3,-99.9,66,47,26,0.00,40.00,9,4,9,0.00
2013-12-29,70.0,48.8,34.0,28.0,22.8,20.0,57,38,17,0.00,40.00,9,4,10,0.00
2013-12-30,69.0,48.3,32.0,33.0,23.7,18.0,58,40,19,0.00,40.00,7,4,9,0.00
2013-12-31,67.0,48.1,35.0,38.0,25.1,19.0,58,42,22,0.00,40.00,8,4,9,0.00
2014-1-1,69.0,48.9,34.0,29.0,25.8,23.0,65,44,21,0.00,40.00,8,4,9,0.00
2014-1-2,72.0,51.9,38.0,29.0,23.7,19.0,48,35,19,0.00,40.00,8,4,9,0.00